sensor_id;sensor_type;location;lat;lon;timestamp;temperature;humidity
23755;DHT22;12057;52.042;6.830;2023-04-06T00:03:32;2.40;99.90
23755;DHT22;12057;52.042;6.830;2023-04-06T00:08:33;2.30;99.90
23755;DHT22;12057;52.042;6.830;2023-04-06T00:13:33;2.30;99.90
23755;DHT22;12057;52.042;6.830;2023-04-06T00:18:34;2.30;99.90
23755;DHT22;12057;52.042;6.830;2023-04-06T00:23:35;2.30;99.90
23755;DHT22;12057;52.042;6.830;2023-04-06T00:28:37;2.20;99.90
23755;DHT22;12057;52.042;6.830;2023-04-06T00:33:38;2.00;99.90
23755;DHT22;12057;52.042;6.830;2023-04-06T00:38:39;1.90;99.90
23755;DHT22;12057;52.042;6.830;2023-04-06T00:43:40;2.00;99.90
23755;DHT22;12057;52.042;6.830;2023-04-06T00:48:40;2.00;99.90
23755;DHT22;12057;52.042;6.830;2023-04-06T00:53:41;2.00;99.90
23755;DHT22;12057;52.042;6.830;2023-04-06T00:58:42;1.90;99.90
23755;DHT22;12057;52.042;6.830;2023-04-06T01:03:43;1.90;99.90
23755;DHT22;12057;52.042;6.830;2023-04-06T01:08:47;1.90;99.90
23755;DHT22;12057;52.042;6.830;2023-04-06T01:13:48;1.70;99.90
23755;DHT22;12057;52.042;6.830;2023-04-06T01:18:49;1.70;99.90
23755;DHT22;12057;52.042;6.830;2023-04-06T01:23:50;1.60;99.90
23755;DHT22;12057;52.042;6.830;2023-04-06T01:28:51;1.70;99.90
23755;DHT22;12057;52.042;6.830;2023-04-06T01:33:52;1.60;99.90
23755;DHT22;12057;52.042;6.830;2023-04-06T01:38:53;1.50;99.90
23755;DHT22;12057;52.042;6.830;2023-04-06T01:43:55;1.50;99.90
23755;DHT22;12057;52.042;6.830;2023-04-06T01:48:55;1.40;99.90
23755;DHT22;12057;52.042;6.830;2023-04-06T01:53:56;1.40;99.90
23755;DHT22;12057;52.042;6.830;2023-04-06T01:58:57;1.40;99.90
23755;DHT22;12057;52.042;6.830;2023-04-06T02:03:58;1.40;99.90
23755;DHT22;12057;52.042;6.830;2023-04-06T02:08:59;1.30;99.90
23755;DHT22;12057;52.042;6.830;2023-04-06T02:13:59;1.30;99.90
23755;DHT22;12057;52.042;6.830;2023-04-06T02:19:01;1.30;99.90
23755;DHT22;12057;52.042;6.830;2023-04-06T02:24:02;1.20;99.90
23755;DHT22;12057;52.042;6.830;2023-04-06T02:29:03;1.20;99.90
23755;DHT22;12057;52.042;6.830;2023-04-06T02:34:03;1.20;99.90
23755;DHT22;12057;52.042;6.830;2023-04-06T02:39:04;1.20;99.90
23755;DHT22;12057;52.042;6.830;2023-04-06T02:44:08;1.20;99.90
23755;DHT22;12057;52.042;6.830;2023-04-06T02:49:10;1.20;99.90
23755;DHT22;12057;52.042;6.830;2023-04-06T02:54:10;1.10;99.90
23755;DHT22;12057;52.042;6.830;2023-04-06T02:59:11;1.00;99.90
23755;DHT22;12057;52.042;6.830;2023-04-06T03:04:12;1.00;99.90
23755;DHT22;12057;52.042;6.830;2023-04-06T03:09:13;1.00;99.90
23755;DHT22;12057;52.042;6.830;2023-04-06T03:14:14;1.00;99.90
23755;DHT22;12057;52.042;6.830;2023-04-06T03:19:24;1.00;99.90
23755;DHT22;12057;52.042;6.830;2023-04-06T03:24:24;1.00;99.90
23755;DHT22;12057;52.042;6.830;2023-04-06T03:29:25;1.00;99.90
23755;DHT22;12057;52.042;6.830;2023-04-06T03:34:27;0.90;99.90
23755;DHT22;12057;52.042;6.830;2023-04-06T03:39:28;0.90;99.90
23755;DHT22;12057;52.042;6.830;2023-04-06T03:44:29;0.90;99.90
23755;DHT22;12057;52.042;6.830;2023-04-06T03:49:30;0.80;99.90
23755;DHT22;12057;52.042;6.830;2023-04-06T03:54:31;0.90;99.90
23755;DHT22;12057;52.042;6.830;2023-04-06T03:59:34;0.80;99.90
23755;DHT22;12057;52.042;6.830;2023-04-06T04:04:35;0.80;99.90
23755;DHT22;12057;52.042;6.830;2023-04-06T04:09:36;0.80;99.90
23755;DHT22;12057;52.042;6.830;2023-04-06T04:14:37;0.70;99.90
23755;DHT22;12057;52.042;6.830;2023-04-06T04:19:38;0.70;99.90
23755;DHT22;12057;52.042;6.830;2023-04-06T04:24:39;0.60;99.90
23755;DHT22;12057;52.042;6.830;2023-04-06T04:29:40;0.60;99.90
23755;DHT22;12057;52.042;6.830;2023-04-06T04:34:40;0.60;99.90
23755;DHT22;12057;52.042;6.830;2023-04-06T04:39:41;0.50;99.90
23755;DHT22;12057;52.042;6.830;2023-04-06T04:44:42;0.60;99.90
23755;DHT22;12057;52.042;6.830;2023-04-06T04:49:43;0.60;99.90
23755;DHT22;12057;52.042;6.830;2023-04-06T04:54:44;0.60;99.90
23755;DHT22;12057;52.042;6.830;2023-04-06T04:59:44;0.60;99.90
23755;DHT22;12057;52.042;6.830;2023-04-06T05:04:46;0.60;99.90
23755;DHT22;12057;52.042;6.830;2023-04-06T05:09:46;0.50;99.90
23755;DHT22;12057;52.042;6.830;2023-04-06T05:14:48;0.60;99.90
23755;DHT22;12057;52.042;6.830;2023-04-06T05:19:49;0.70;99.90
23755;DHT22;12057;52.042;6.830;2023-04-06T05:24:49;0.60;99.90
23755;DHT22;12057;52.042;6.830;2023-04-06T05:29:50;0.70;99.90
23755;DHT22;12057;52.042;6.830;2023-04-06T05:34:51;0.80;99.90
23755;DHT22;12057;52.042;6.830;2023-04-06T05:39:52;0.90;99.90
23755;DHT22;12057;52.042;6.830;2023-04-06T05:44:53;0.90;99.90
23755;DHT22;12057;52.042;6.830;2023-04-06T05:49:53;1.00;99.90
23755;DHT22;12057;52.042;6.830;2023-04-06T05:54:54;1.10;99.90
23755;DHT22;12057;52.042;6.830;2023-04-06T05:59:55;1.20;99.90
23755;DHT22;12057;52.042;6.830;2023-04-06T06:04:56;1.30;99.90
23755;DHT22;12057;52.042;6.830;2023-04-06T06:09:57;1.40;99.90
23755;DHT22;12057;52.042;6.830;2023-04-06T06:14:58;1.60;99.90
23755;DHT22;12057;52.042;6.830;2023-04-06T06:19:59;1.80;99.90
23755;DHT22;12057;52.042;6.830;2023-04-06T06:25:00;1.90;99.90
23755;DHT22;12057;52.042;6.830;2023-04-06T06:30:02;2.20;99.90
23755;DHT22;12057;52.042;6.830;2023-04-06T06:35:03;2.40;99.90
23755;DHT22;12057;52.042;6.830;2023-04-06T06:40:04;2.70;99.90
23755;DHT22;12057;52.042;6.830;2023-04-06T06:45:07;3.00;99.90
23755;DHT22;12057;52.042;6.830;2023-04-06T06:50:08;3.40;99.90
23755;DHT22;12057;52.042;6.830;2023-04-06T06:55:10;3.70;99.90
23755;DHT22;12057;52.042;6.830;2023-04-06T07:00:11;4.00;99.90
23755;DHT22;12057;52.042;6.830;2023-04-06T07:05:14;4.20;99.90
23755;DHT22;12057;52.042;6.830;2023-04-06T07:10:14;4.60;99.90
23755;DHT22;12057;52.042;6.830;2023-04-06T07:15:16;4.90;99.90
23755;DHT22;12057;52.042;6.830;2023-04-06T07:20:17;5.20;99.90
23755;DHT22;12057;52.042;6.830;2023-04-06T07:25:18;5.50;99.90
23755;DHT22;12057;52.042;6.830;2023-04-06T07:30:19;5.80;99.90
23755;DHT22;12057;52.042;6.830;2023-04-06T07:35:20;6.00;99.90
23755;DHT22;12057;52.042;6.830;2023-04-06T07:40:20;6.40;99.90
23755;DHT22;12057;52.042;6.830;2023-04-06T07:45:21;7.00;99.90
23755;DHT22;12057;52.042;6.830;2023-04-06T07:50:22;6.90;99.90
23755;DHT22;12057;52.042;6.830;2023-04-06T07:55:23;7.20;99.90
23755;DHT22;12057;52.042;6.830;2023-04-06T08:00:24;7.50;99.90
23755;DHT22;12057;52.042;6.830;2023-04-06T08:05:25;7.80;99.90
23755;DHT22;12057;52.042;6.830;2023-04-06T08:10:26;8.20;99.90
23755;DHT22;12057;52.042;6.830;2023-04-06T08:15:27;8.60;99.90
23755;DHT22;12057;52.042;6.830;2023-04-06T08:20:28;9.00;99.90
23755;DHT22;12057;52.042;6.830;2023-04-06T08:25:29;9.30;99.90
23755;DHT22;12057;52.042;6.830;2023-04-06T08:30:30;9.60;99.90
23755;DHT22;12057;52.042;6.830;2023-04-06T08:35:31;10.00;99.90
23755;DHT22;12057;52.042;6.830;2023-04-06T08:40:39;10.00;99.90
23755;DHT22;12057;52.042;6.830;2023-04-06T08:45:41;10.00;99.90
23755;DHT22;12057;52.042;6.830;2023-04-06T08:50:43;9.90;99.90
23755;DHT22;12057;52.042;6.830;2023-04-06T08:55:44;10.00;99.90
23755;DHT22;12057;52.042;6.830;2023-04-06T09:00:45;10.20;99.90
23755;DHT22;12057;52.042;6.830;2023-04-06T09:05:46;10.30;99.90
23755;DHT22;12057;52.042;6.830;2023-04-06T09:10:48;10.60;99.90
23755;DHT22;12057;52.042;6.830;2023-04-06T09:16:01;11.00;99.90
23755;DHT22;12057;52.042;6.830;2023-04-06T09:21:05;10.90;99.90
23755;DHT22;12057;52.042;6.830;2023-04-06T09:26:07;11.10;98.60
23755;DHT22;12057;52.042;6.830;2023-04-06T09:31:08;11.00;96.60
23755;DHT22;12057;52.042;6.830;2023-04-06T09:36:11;11.00;97.70
23755;DHT22;12057;52.042;6.830;2023-04-06T09:46:27;11.40;96.00
23755;DHT22;12057;52.042;6.830;2023-04-06T09:51:42;11.70;96.40
23755;DHT22;12057;52.042;6.830;2023-04-06T09:57:01;11.60;93.50
23755;DHT22;12057;52.042;6.830;2023-04-06T10:02:05;11.80;92.60
23755;DHT22;12057;52.042;6.830;2023-04-06T10:07:10;11.90;92.50
23755;DHT22;12057;52.042;6.830;2023-04-06T10:12:12;12.40;90.80
23755;DHT22;12057;52.042;6.830;2023-04-06T10:17:13;13.00;88.90
23755;DHT22;12057;52.042;6.830;2023-04-06T10:22:23;13.80;89.20
23755;DHT22;12057;52.042;6.830;2023-04-06T10:27:30;14.20;85.70
23755;DHT22;12057;52.042;6.830;2023-04-06T10:32:40;14.10;81.90
23755;DHT22;12057;52.042;6.830;2023-04-06T10:37:53;14.20;78.10
23755;DHT22;12057;52.042;6.830;2023-04-06T10:42:55;13.60;77.80
23755;DHT22;12057;52.042;6.830;2023-04-06T10:47:56;13.80;77.80
23755;DHT22;12057;52.042;6.830;2023-04-06T10:53:01;14.10;77.60
23755;DHT22;12057;52.042;6.830;2023-04-06T10:58:05;14.20;79.10
23755;DHT22;12057;52.042;6.830;2023-04-06T11:03:06;14.10;77.30
23755;DHT22;12057;52.042;6.830;2023-04-06T11:08:07;14.30;78.70
23755;DHT22;12057;52.042;6.830;2023-04-06T11:13:08;13.80;78.30
23755;DHT22;12057;52.042;6.830;2023-04-06T11:18:08;14.40;78.30
23755;DHT22;12057;52.042;6.830;2023-04-06T11:23:10;14.50;76.60
23755;DHT22;12057;52.042;6.830;2023-04-06T11:28:11;14.30;76.00
23755;DHT22;12057;52.042;6.830;2023-04-06T11:33:20;13.90;76.60
23755;DHT22;12057;52.042;6.830;2023-04-06T11:38:22;13.90;78.20
23755;DHT22;12057;52.042;6.830;2023-04-06T11:43:28;13.70;78.20
23755;DHT22;12057;52.042;6.830;2023-04-06T11:48:30;13.70;78.60
23755;DHT22;12057;52.042;6.830;2023-04-06T11:53:31;13.80;77.00
23755;DHT22;12057;52.042;6.830;2023-04-06T11:58:33;14.10;77.80
23755;DHT22;12057;52.042;6.830;2023-04-06T12:03:34;14.40;81.10
23755;DHT22;12057;52.042;6.830;2023-04-06T12:08:35;14.70;77.40
23755;DHT22;12057;52.042;6.830;2023-04-06T12:13:36;14.70;80.80
23755;DHT22;12057;52.042;6.830;2023-04-06T12:18:37;14.80;76.20
23755;DHT22;12057;52.042;6.830;2023-04-06T12:23:37;14.20;78.60
23755;DHT22;12057;52.042;6.830;2023-04-06T12:28:38;14.50;78.00
23755;DHT22;12057;52.042;6.830;2023-04-06T12:33:39;14.50;77.80
23755;DHT22;12057;52.042;6.830;2023-04-06T12:38:41;14.40;78.40
23755;DHT22;12057;52.042;6.830;2023-04-06T12:43:43;14.40;79.70
23755;DHT22;12057;52.042;6.830;2023-04-06T12:48:43;14.20;78.30
23755;DHT22;12057;52.042;6.830;2023-04-06T12:53:45;14.00;82.60
23755;DHT22;12057;52.042;6.830;2023-04-06T12:58:45;13.90;84.10
23755;DHT22;12057;52.042;6.830;2023-04-06T13:03:46;13.80;85.20
23755;DHT22;12057;52.042;6.830;2023-04-06T13:08:47;13.90;86.60
23755;DHT22;12057;52.042;6.830;2023-04-06T13:13:50;12.80;81.50
23755;DHT22;12057;52.042;6.830;2023-04-06T13:18:51;13.60;86.40
23755;DHT22;12057;52.042;6.830;2023-04-06T13:23:52;13.70;85.80
23755;DHT22;12057;52.042;6.830;2023-04-06T13:28:52;13.70;85.50
23755;DHT22;12057;52.042;6.830;2023-04-06T13:33:53;13.60;86.40
23755;DHT22;12057;52.042;6.830;2023-04-06T13:38:54;13.60;84.60
23755;DHT22;12057;52.042;6.830;2023-04-06T13:43:56;13.20;85.50
23755;DHT22;12057;52.042;6.830;2023-04-06T13:48:58;13.00;85.40
23755;DHT22;12057;52.042;6.830;2023-04-06T13:53:59;13.10;88.90
23755;DHT22;12057;52.042;6.830;2023-04-06T13:58:59;13.30;89.40
23755;DHT22;12057;52.042;6.830;2023-04-06T14:04:03;13.10;88.70
23755;DHT22;12057;52.042;6.830;2023-04-06T14:09:04;13.00;90.20
23755;DHT22;12057;52.042;6.830;2023-04-06T14:14:04;12.90;90.30
23755;DHT22;12057;52.042;6.830;2023-04-06T14:19:06;12.80;91.20
23755;DHT22;12057;52.042;6.830;2023-04-06T14:24:07;12.50;92.50
23755;DHT22;12057;52.042;6.830;2023-04-06T14:29:08;12.30;96.80
23755;DHT22;12057;52.042;6.830;2023-04-06T14:34:10;11.90;99.90
23755;DHT22;12057;52.042;6.830;2023-04-06T14:39:11;11.30;99.90
23755;DHT22;12057;52.042;6.830;2023-04-06T14:44:11;11.20;99.90
23755;DHT22;12057;52.042;6.830;2023-04-06T14:49:13;11.20;99.90
23755;DHT22;12057;52.042;6.830;2023-04-06T14:54:14;11.10;99.90
23755;DHT22;12057;52.042;6.830;2023-04-06T14:59:14;10.80;99.90
23755;DHT22;12057;52.042;6.830;2023-04-06T15:04:15;10.70;99.90
23755;DHT22;12057;52.042;6.830;2023-04-06T15:09:16;10.60;99.90
23755;DHT22;12057;52.042;6.830;2023-04-06T15:14:17;10.60;99.90
23755;DHT22;12057;52.042;6.830;2023-04-06T15:19:18;10.50;99.90
23755;DHT22;12057;52.042;6.830;2023-04-06T15:24:19;10.50;99.90
23755;DHT22;12057;52.042;6.830;2023-04-06T15:29:19;10.40;99.90
23755;DHT22;12057;52.042;6.830;2023-04-06T15:34:20;10.50;99.90
23755;DHT22;12057;52.042;6.830;2023-04-06T15:39:21;10.50;99.90
23755;DHT22;12057;52.042;6.830;2023-04-06T15:44:22;10.40;99.90
23755;DHT22;12057;52.042;6.830;2023-04-06T15:49:23;10.30;99.90
23755;DHT22;12057;52.042;6.830;2023-04-06T15:54:24;10.20;99.90
23755;DHT22;12057;52.042;6.830;2023-04-06T15:59:25;10.10;99.90
23755;DHT22;12057;52.042;6.830;2023-04-06T16:04:26;10.00;99.90
23755;DHT22;12057;52.042;6.830;2023-04-06T16:09:27;10.10;99.90
23755;DHT22;12057;52.042;6.830;2023-04-06T16:14:28;10.10;99.90
23755;DHT22;12057;52.042;6.830;2023-04-06T16:19:28;10.10;99.90
23755;DHT22;12057;52.042;6.830;2023-04-06T16:24:29;10.00;99.90
23755;DHT22;12057;52.042;6.830;2023-04-06T16:29:31;9.80;99.90
23755;DHT22;12057;52.042;6.830;2023-04-06T16:34:34;9.70;99.90
23755;DHT22;12057;52.042;6.830;2023-04-06T16:39:36;9.60;99.90
23755;DHT22;12057;52.042;6.830;2023-04-06T16:44:37;9.50;99.90
23755;DHT22;12057;52.042;6.830;2023-04-06T16:49:37;9.40;99.90
23755;DHT22;12057;52.042;6.830;2023-04-06T16:54:38;9.40;99.90
23755;DHT22;12057;52.042;6.830;2023-04-06T16:59:39;9.40;99.90
23755;DHT22;12057;52.042;6.830;2023-04-06T17:04:40;9.30;99.90
23755;DHT22;12057;52.042;6.830;2023-04-06T17:09:40;9.30;99.90
23755;DHT22;12057;52.042;6.830;2023-04-06T17:14:41;9.30;99.90
23755;DHT22;12057;52.042;6.830;2023-04-06T17:19:42;9.20;99.90
23755;DHT22;12057;52.042;6.830;2023-04-06T17:24:43;9.10;99.90
23755;DHT22;12057;52.042;6.830;2023-04-06T17:29:44;9.00;99.90
23755;DHT22;12057;52.042;6.830;2023-04-06T17:34:45;8.90;99.90
23755;DHT22;12057;52.042;6.830;2023-04-06T17:39:45;8.70;99.90
23755;DHT22;12057;52.042;6.830;2023-04-06T17:44:46;10.20;99.90
23755;DHT22;12057;52.042;6.830;2023-04-06T17:49:48;8.60;99.90
23755;DHT22;12057;52.042;6.830;2023-04-06T17:54:49;8.50;99.90
23755;DHT22;12057;52.042;6.830;2023-04-06T17:59:51;8.40;99.90
23755;DHT22;12057;52.042;6.830;2023-04-06T18:04:53;8.40;99.90
23755;DHT22;12057;52.042;6.830;2023-04-06T18:09:54;8.30;99.90
23755;DHT22;12057;52.042;6.830;2023-04-06T18:14:55;8.20;99.90
23755;DHT22;12057;52.042;6.830;2023-04-06T18:19:56;7.70;99.90
23755;DHT22;12057;52.042;6.830;2023-04-06T18:24:57;8.10;99.90
23755;DHT22;12057;52.042;6.830;2023-04-06T18:29:59;8.10;99.90
23755;DHT22;12057;52.042;6.830;2023-04-06T18:35:00;8.00;99.90
23755;DHT22;12057;52.042;6.830;2023-04-06T18:40:01;8.00;99.90
23755;DHT22;12057;52.042;6.830;2023-04-06T18:45:03;8.00;99.90
23755;DHT22;12057;52.042;6.830;2023-04-06T18:50:05;7.90;99.90
23755;DHT22;12057;52.042;6.830;2023-04-06T18:55:06;7.90;99.90
23755;DHT22;12057;52.042;6.830;2023-04-06T19:00:07;7.80;99.90
23755;DHT22;12057;52.042;6.830;2023-04-06T19:05:12;7.80;99.90
23755;DHT22;12057;52.042;6.830;2023-04-06T19:10:13;7.80;99.90
23755;DHT22;12057;52.042;6.830;2023-04-06T19:15:14;7.80;99.90
23755;DHT22;12057;52.042;6.830;2023-04-06T19:20:15;7.90;99.90
23755;DHT22;12057;52.042;6.830;2023-04-06T19:25:17;7.80;99.90
23755;DHT22;12057;52.042;6.830;2023-04-06T19:30:18;7.80;99.90
23755;DHT22;12057;52.042;6.830;2023-04-06T19:35:19;7.70;99.90
23755;DHT22;12057;52.042;6.830;2023-04-06T19:40:20;7.80;99.90
23755;DHT22;12057;52.042;6.830;2023-04-06T19:45:21;7.70;99.90
23755;DHT22;12057;52.042;6.830;2023-04-06T19:50:22;7.70;99.90
23755;DHT22;12057;52.042;6.830;2023-04-06T19:55:22;7.60;99.90
23755;DHT22;12057;52.042;6.830;2023-04-06T20:00:23;7.60;99.90
23755;DHT22;12057;52.042;6.830;2023-04-06T20:05:24;9.00;99.90
23755;DHT22;12057;52.042;6.830;2023-04-06T20:10:25;7.60;99.90
23755;DHT22;12057;52.042;6.830;2023-04-06T20:15:26;7.70;99.90
23755;DHT22;12057;52.042;6.830;2023-04-06T20:20:27;7.70;99.90
23755;DHT22;12057;52.042;6.830;2023-04-06T20:25:28;7.80;99.90
23755;DHT22;12057;52.042;6.830;2023-04-06T20:30:29;7.70;99.90
23755;DHT22;12057;52.042;6.830;2023-04-06T20:35:29;7.80;99.90
23755;DHT22;12057;52.042;6.830;2023-04-06T20:40:31;7.70;99.90
23755;DHT22;12057;52.042;6.830;2023-04-06T20:45:35;7.80;99.90
23755;DHT22;12057;52.042;6.830;2023-04-06T20:50:37;7.70;99.90
23755;DHT22;12057;52.042;6.830;2023-04-06T20:55:41;7.70;99.90
23755;DHT22;12057;52.042;6.830;2023-04-06T21:00:42;7.70;99.90
23755;DHT22;12057;52.042;6.830;2023-04-06T21:05:54;7.60;99.90
23755;DHT22;12057;52.042;6.830;2023-04-06T21:10:56;7.60;99.90
23755;DHT22;12057;52.042;6.830;2023-04-06T21:15:57;7.70;99.90
23755;DHT22;12057;52.042;6.830;2023-04-06T21:20:58;7.60;99.90
23755;DHT22;12057;52.042;6.830;2023-04-06T21:25:59;7.70;99.90
23755;DHT22;12057;52.042;6.830;2023-04-06T21:31:05;7.70;99.90
23755;DHT22;12057;52.042;6.830;2023-04-06T21:36:07;7.70;99.90
23755;DHT22;12057;52.042;6.830;2023-04-06T21:41:08;7.60;99.90
23755;DHT22;12057;52.042;6.830;2023-04-06T21:46:19;7.60;99.90
23755;DHT22;12057;52.042;6.830;2023-04-06T21:51:21;7.70;99.90
23755;DHT22;12057;52.042;6.830;2023-04-06T21:56:24;7.60;99.90
23755;DHT22;12057;52.042;6.830;2023-04-06T22:01:25;7.70;99.90
23755;DHT22;12057;52.042;6.830;2023-04-06T22:06:27;7.70;99.90
23755;DHT22;12057;52.042;6.830;2023-04-06T22:11:29;7.70;99.90
23755;DHT22;12057;52.042;6.830;2023-04-06T22:16:30;7.60;99.90
23755;DHT22;12057;52.042;6.830;2023-04-06T22:21:31;7.60;99.90
23755;DHT22;12057;52.042;6.830;2023-04-06T22:26:32;7.60;99.90
23755;DHT22;12057;52.042;6.830;2023-04-06T22:31:33;7.60;99.90
23755;DHT22;12057;52.042;6.830;2023-04-06T22:36:34;7.60;99.90
23755;DHT22;12057;52.042;6.830;2023-04-06T22:41:34;7.70;99.90
23755;DHT22;12057;52.042;6.830;2023-04-06T22:46:35;7.70;99.90
23755;DHT22;12057;52.042;6.830;2023-04-06T22:51:36;7.70;99.90
23755;DHT22;12057;52.042;6.830;2023-04-06T22:56:37;7.70;99.90
23755;DHT22;12057;52.042;6.830;2023-04-06T23:01:37;7.70;99.90
23755;DHT22;12057;52.042;6.830;2023-04-06T23:06:38;7.70;99.90
23755;DHT22;12057;52.042;6.830;2023-04-06T23:11:39;7.70;99.90
23755;DHT22;12057;52.042;6.830;2023-04-06T23:16:40;7.70;99.90
23755;DHT22;12057;52.042;6.830;2023-04-06T23:21:41;7.70;99.90
23755;DHT22;12057;52.042;6.830;2023-04-06T23:26:41;7.70;99.90
23755;DHT22;12057;52.042;6.830;2023-04-06T23:31:42;7.70;99.90
23755;DHT22;12057;52.042;6.830;2023-04-06T23:36:43;7.70;99.90
23755;DHT22;12057;52.042;6.830;2023-04-06T23:41:43;7.70;99.90
23755;DHT22;12057;52.042;6.830;2023-04-06T23:46:44;7.70;99.90
23755;DHT22;12057;52.042;6.830;2023-04-06T23:51:46;7.80;99.90
23755;DHT22;12057;52.042;6.830;2023-04-06T23:56:46;7.70;99.90
